sensor_id;sensor_type;location;lat;lon;timestamp;temperature;humidity
31575;DHT22;18182;1.328;103.810;2022-10-13T00:00:30;28.50;99.90
31575;DHT22;18182;1.328;103.810;2022-10-13T00:03:00;28.50;99.90
31575;DHT22;18182;1.328;103.810;2022-10-13T00:05:27;28.60;99.90
31575;DHT22;18182;1.328;103.810;2022-10-13T00:07:53;28.60;99.90
31575;DHT22;18182;1.328;103.810;2022-10-13T00:10:19;28.60;99.90
31575;DHT22;18182;1.328;103.810;2022-10-13T00:12:45;28.70;99.90
31575;DHT22;18182;1.328;103.810;2022-10-13T00:15:11;28.70;99.90
31575;DHT22;18182;1.328;103.810;2022-10-13T00:17:37;28.70;99.90
31575;DHT22;18182;1.328;103.810;2022-10-13T00:20:04;28.80;99.90
31575;DHT22;18182;1.328;103.810;2022-10-13T00:22:31;28.90;99.90
31575;DHT22;18182;1.328;103.810;2022-10-13T00:24:57;28.90;99.90
31575;DHT22;18182;1.328;103.810;2022-10-13T00:27:23;29.00;99.90
31575;DHT22;18182;1.328;103.810;2022-10-13T00:29:49;29.10;99.90
31575;DHT22;18182;1.328;103.810;2022-10-13T00:32:16;29.20;99.90
31575;DHT22;18182;1.328;103.810;2022-10-13T00:34:42;29.20;99.90
31575;DHT22;18182;1.328;103.810;2022-10-13T00:37:08;29.20;99.90
31575;DHT22;18182;1.328;103.810;2022-10-13T00:39:35;29.30;99.90
31575;DHT22;18182;1.328;103.810;2022-10-13T00:42:01;29.30;99.90
31575;DHT22;18182;1.328;103.810;2022-10-13T00:47:12;29.50;99.90
31575;DHT22;18182;1.328;103.810;2022-10-13T00:49:39;29.50;99.90
31575;DHT22;18182;1.328;103.810;2022-10-13T00:52:05;29.50;99.90
31575;DHT22;18182;1.328;103.810;2022-10-13T00:54:31;29.60;99.90
31575;DHT22;18182;1.328;103.810;2022-10-13T00:56:58;29.60;99.90
31575;DHT22;18182;1.328;103.810;2022-10-13T00:59:25;29.60;99.90
31575;DHT22;18182;1.328;103.810;2022-10-13T01:01:53;29.60;99.90
31575;DHT22;18182;1.328;103.810;2022-10-13T01:04:21;29.60;99.90
31575;DHT22;18182;1.328;103.810;2022-10-13T01:06:48;29.60;99.90
31575;DHT22;18182;1.328;103.810;2022-10-13T01:09:14;29.60;99.90
31575;DHT22;18182;1.328;103.810;2022-10-13T01:14:29;29.50;99.90
31575;DHT22;18182;1.328;103.810;2022-10-13T01:17:03;29.50;99.90
31575;DHT22;18182;1.328;103.810;2022-10-13T01:27:20;29.60;99.90
31575;DHT22;18182;1.328;103.810;2022-10-13T01:29:59;29.60;99.90
31575;DHT22;18182;1.328;103.810;2022-10-13T01:35:17;29.80;99.90
31575;DHT22;18182;1.328;103.810;2022-10-13T01:40:17;29.90;99.90
31575;DHT22;18182;1.328;103.810;2022-10-13T01:43:03;29.90;99.90
31575;DHT22;18182;1.328;103.810;2022-10-13T01:45:36;30.10;99.90
31575;DHT22;18182;1.328;103.810;2022-10-13T01:48:03;30.10;99.90
31575;DHT22;18182;1.328;103.810;2022-10-13T01:50:31;30.10;99.90
31575;DHT22;18182;1.328;103.810;2022-10-13T01:52:58;30.10;99.90
31575;DHT22;18182;1.328;103.810;2022-10-13T01:55:25;30.10;99.90
31575;DHT22;18182;1.328;103.810;2022-10-13T01:57:53;30.10;99.90
31575;DHT22;18182;1.328;103.810;2022-10-13T02:00:20;30.10;99.90
31575;DHT22;18182;1.328;103.810;2022-10-13T02:08:09;30.20;99.90
31575;DHT22;18182;1.328;103.810;2022-10-13T02:10:36;30.20;99.90
31575;DHT22;18182;1.328;103.810;2022-10-13T02:13:05;30.20;99.90
31575;DHT22;18182;1.328;103.810;2022-10-13T02:15:34;30.10;99.90
31575;DHT22;18182;1.328;103.810;2022-10-13T02:18:02;30.10;99.90
31575;DHT22;18182;1.328;103.810;2022-10-13T02:20:28;30.10;99.90
31575;DHT22;18182;1.328;103.810;2022-10-13T02:22:56;30.10;99.90
31575;DHT22;18182;1.328;103.810;2022-10-13T02:25:25;30.20;99.90
31575;DHT22;18182;1.328;103.810;2022-10-13T02:27:52;30.30;99.90
31575;DHT22;18182;1.328;103.810;2022-10-13T02:30:19;30.30;99.90
31575;DHT22;18182;1.328;103.810;2022-10-13T02:32:45;30.30;99.90
31575;DHT22;18182;1.328;103.810;2022-10-13T02:35:11;30.30;99.90
31575;DHT22;18182;1.328;103.810;2022-10-13T02:37:37;30.30;99.90
31575;DHT22;18182;1.328;103.810;2022-10-13T02:40:03;30.30;99.90
31575;DHT22;18182;1.328;103.810;2022-10-13T02:42:30;30.40;99.90
31575;DHT22;18182;1.328;103.810;2022-10-13T02:44:56;30.60;99.90
31575;DHT22;18182;1.328;103.810;2022-10-13T02:47:22;30.60;99.90
31575;DHT22;18182;1.328;103.810;2022-10-13T02:49:49;30.70;99.90
31575;DHT22;18182;1.328;103.810;2022-10-13T02:52:15;30.80;99.90
31575;DHT22;18182;1.328;103.810;2022-10-13T02:54:41;30.80;99.90
31575;DHT22;18182;1.328;103.810;2022-10-13T02:57:08;30.90;99.90
31575;DHT22;18182;1.328;103.810;2022-10-13T02:59:34;30.90;99.90
31575;DHT22;18182;1.328;103.810;2022-10-13T03:02:00;30.90;99.90
31575;DHT22;18182;1.328;103.810;2022-10-13T03:04:26;30.90;99.90
31575;DHT22;18182;1.328;103.810;2022-10-13T03:06:52;31.00;99.90
31575;DHT22;18182;1.328;103.810;2022-10-13T03:09:18;31.10;99.90
31575;DHT22;18182;1.328;103.810;2022-10-13T03:11:44;31.10;99.90
31575;DHT22;18182;1.328;103.810;2022-10-13T03:14:10;31.10;99.90
31575;DHT22;18182;1.328;103.810;2022-10-13T03:16:36;31.10;99.90
31575;DHT22;18182;1.328;103.810;2022-10-13T03:19:02;31.20;99.90
31575;DHT22;18182;1.328;103.810;2022-10-13T03:21:29;31.40;99.90
31575;DHT22;18182;1.328;103.810;2022-10-13T03:23:55;31.40;99.90
31575;DHT22;18182;1.328;103.810;2022-10-13T03:26:21;31.40;99.90
31575;DHT22;18182;1.328;103.810;2022-10-13T03:28:51;31.50;99.90
31575;DHT22;18182;1.328;103.810;2022-10-13T03:31:17;31.60;99.90
31575;DHT22;18182;1.328;103.810;2022-10-13T03:33:43;31.60;99.90
31575;DHT22;18182;1.328;103.810;2022-10-13T03:36:10;31.80;99.90
31575;DHT22;18182;1.328;103.810;2022-10-13T03:38:38;31.90;99.90
31575;DHT22;18182;1.328;103.810;2022-10-13T03:41:05;31.90;99.90
31575;DHT22;18182;1.328;103.810;2022-10-13T03:43:32;32.00;99.90
31575;DHT22;18182;1.328;103.810;2022-10-13T03:45:58;32.10;99.90
31575;DHT22;18182;1.328;103.810;2022-10-13T03:48:25;32.10;99.90
31575;DHT22;18182;1.328;103.810;2022-10-13T03:50:51;32.20;99.90
31575;DHT22;18182;1.328;103.810;2022-10-13T03:53:18;32.20;99.90
31575;DHT22;18182;1.328;103.810;2022-10-13T03:55:51;32.20;99.90
31575;DHT22;18182;1.328;103.810;2022-10-13T03:58:17;32.20;99.90
31575;DHT22;18182;1.328;103.810;2022-10-13T04:00:43;32.20;99.90
31575;DHT22;18182;1.328;103.810;2022-10-13T04:03:10;32.20;99.90
31575;DHT22;18182;1.328;103.810;2022-10-13T04:05:36;32.30;99.90
31575;DHT22;18182;1.328;103.810;2022-10-13T04:08:02;32.40;99.90
31575;DHT22;18182;1.328;103.810;2022-10-13T04:10:29;32.30;99.90
31575;DHT22;18182;1.328;103.810;2022-10-13T04:12:55;32.50;99.90
31575;DHT22;18182;1.328;103.810;2022-10-13T04:15:22;32.60;99.90
31575;DHT22;18182;1.328;103.810;2022-10-13T04:17:48;32.70;99.80
31575;DHT22;18182;1.328;103.810;2022-10-13T04:20:14;32.80;98.80
31575;DHT22;18182;1.328;103.810;2022-10-13T04:22:40;32.70;98.70
31575;DHT22;18182;1.328;103.810;2022-10-13T04:25:06;32.70;99.00
31575;DHT22;18182;1.328;103.810;2022-10-13T04:27:33;32.80;98.50
31575;DHT22;18182;1.328;103.810;2022-10-13T04:30:03;32.80;98.50
31575;DHT22;18182;1.328;103.810;2022-10-13T04:32:29;32.70;98.10
31575;DHT22;18182;1.328;103.810;2022-10-13T04:34:55;32.80;98.70
31575;DHT22;18182;1.328;103.810;2022-10-13T04:37:22;32.80;98.90
31575;DHT22;18182;1.328;103.810;2022-10-13T04:39:48;32.90;99.20
31575;DHT22;18182;1.328;103.810;2022-10-13T04:42:15;32.90;99.20
31575;DHT22;18182;1.328;103.810;2022-10-13T04:44:41;32.90;99.10
31575;DHT22;18182;1.328;103.810;2022-10-13T04:47:07;33.00;99.10
31575;DHT22;18182;1.328;103.810;2022-10-13T04:49:33;33.00;99.30
31575;DHT22;18182;1.328;103.810;2022-10-13T04:52:00;32.90;99.70
31575;DHT22;18182;1.328;103.810;2022-10-13T04:54:26;33.00;99.40
31575;DHT22;18182;1.328;103.810;2022-10-13T04:56:52;33.10;98.40
31575;DHT22;18182;1.328;103.810;2022-10-13T04:59:18;33.10;98.90
31575;DHT22;18182;1.328;103.810;2022-10-13T05:01:45;33.00;98.70
31575;DHT22;18182;1.328;103.810;2022-10-13T05:04:11;32.90;98.60
31575;DHT22;18182;1.328;103.810;2022-10-13T05:06:38;32.80;98.90
31575;DHT22;18182;1.328;103.810;2022-10-13T05:09:04;32.70;98.90
31575;DHT22;18182;1.328;103.810;2022-10-13T05:11:31;32.50;98.90
31575;DHT22;18182;1.328;103.810;2022-10-13T05:13:57;32.40;99.10
31575;DHT22;18182;1.328;103.810;2022-10-13T05:16:24;32.30;99.30
31575;DHT22;18182;1.328;103.810;2022-10-13T05:18:51;32.30;99.80
31575;DHT22;18182;1.328;103.810;2022-10-13T05:21:19;32.10;99.50
31575;DHT22;18182;1.328;103.810;2022-10-13T05:23:46;31.90;99.90
31575;DHT22;18182;1.328;103.810;2022-10-13T05:26:14;31.90;99.90
31575;DHT22;18182;1.328;103.810;2022-10-13T05:28:41;31.90;99.90
31575;DHT22;18182;1.328;103.810;2022-10-13T05:33:34;32.20;99.70
31575;DHT22;18182;1.328;103.810;2022-10-13T05:36:05;32.20;99.80
31575;DHT22;18182;1.328;103.810;2022-10-13T05:38:31;32.30;99.40
31575;DHT22;18182;1.328;103.810;2022-10-13T05:41:01;32.40;99.40
31575;DHT22;18182;1.328;103.810;2022-10-13T05:43:28;32.20;99.20
31575;DHT22;18182;1.328;103.810;2022-10-13T05:45:55;32.10;99.50
31575;DHT22;18182;1.328;103.810;2022-10-13T05:48:21;32.00;99.70
31575;DHT22;18182;1.328;103.810;2022-10-13T05:50:47;32.10;99.90
31575;DHT22;18182;1.328;103.810;2022-10-13T05:53:13;32.10;99.90
31575;DHT22;18182;1.328;103.810;2022-10-13T05:55:39;32.20;99.90
31575;DHT22;18182;1.328;103.810;2022-10-13T05:58:06;32.10;99.90
31575;DHT22;18182;1.328;103.810;2022-10-13T06:00:32;32.10;99.90
31575;DHT22;18182;1.328;103.810;2022-10-13T06:03:01;32.10;99.90
31575;DHT22;18182;1.328;103.810;2022-10-13T06:05:28;32.10;99.80
31575;DHT22;18182;1.328;103.810;2022-10-13T06:07:57;32.00;99.80
31575;DHT22;18182;1.328;103.810;2022-10-13T06:10:24;31.90;99.70
31575;DHT22;18182;1.328;103.810;2022-10-13T06:12:51;31.80;99.40
31575;DHT22;18182;1.328;103.810;2022-10-13T06:15:17;31.80;99.60
31575;DHT22;18182;1.328;103.810;2022-10-13T06:17:43;31.70;99.60
31575;DHT22;18182;1.328;103.810;2022-10-13T06:20:09;31.60;99.80
31575;DHT22;18182;1.328;103.810;2022-10-13T06:22:36;31.60;99.90
31575;DHT22;18182;1.328;103.810;2022-10-13T06:25:03;31.70;99.90
31575;DHT22;18182;1.328;103.810;2022-10-13T06:27:29;31.60;99.00
31575;DHT22;18182;1.328;103.810;2022-10-13T06:29:55;31.70;98.70
31575;DHT22;18182;1.328;103.810;2022-10-13T06:32:22;31.80;98.80
31575;DHT22;18182;1.328;103.810;2022-10-13T06:34:48;31.80;98.80
31575;DHT22;18182;1.328;103.810;2022-10-13T06:37:14;31.80;98.90
31575;DHT22;18182;1.328;103.810;2022-10-13T06:39:40;31.90;99.40
31575;DHT22;18182;1.328;103.810;2022-10-13T06:42:07;31.90;99.00
31575;DHT22;18182;1.328;103.810;2022-10-13T06:44:33;31.90;98.70
31575;DHT22;18182;1.328;103.810;2022-10-13T06:46:59;31.90;99.30
31575;DHT22;18182;1.328;103.810;2022-10-13T06:49:25;31.90;99.70
31575;DHT22;18182;1.328;103.810;2022-10-13T06:51:51;31.80;99.90
31575;DHT22;18182;1.328;103.810;2022-10-13T06:54:18;31.70;99.70
31575;DHT22;18182;1.328;103.810;2022-10-13T06:56:44;31.60;99.90
31575;DHT22;18182;1.328;103.810;2022-10-13T06:59:10;31.60;99.90
31575;DHT22;18182;1.328;103.810;2022-10-13T07:01:36;31.50;99.90
31575;DHT22;18182;1.328;103.810;2022-10-13T07:04:03;31.50;99.90
31575;DHT22;18182;1.328;103.810;2022-10-13T07:06:29;31.50;99.90
31575;DHT22;18182;1.328;103.810;2022-10-13T07:08:55;31.50;99.90
31575;DHT22;18182;1.328;103.810;2022-10-13T07:11:21;31.50;99.90
31575;DHT22;18182;1.328;103.810;2022-10-13T07:13:47;31.50;99.90
31575;DHT22;18182;1.328;103.810;2022-10-13T07:16:13;31.40;99.60
31575;DHT22;18182;1.328;103.810;2022-10-13T07:18:40;31.40;99.70
31575;DHT22;18182;1.328;103.810;2022-10-13T07:21:06;31.40;99.90
31575;DHT22;18182;1.328;103.810;2022-10-13T07:23:32;31.50;99.70
31575;DHT22;18182;1.328;103.810;2022-10-13T07:25:58;31.40;99.20
31575;DHT22;18182;1.328;103.810;2022-10-13T07:28:26;31.40;99.10
31575;DHT22;18182;1.328;103.810;2022-10-13T07:30:52;31.40;99.30
31575;DHT22;18182;1.328;103.810;2022-10-13T07:33:18;31.40;99.40
31575;DHT22;18182;1.328;103.810;2022-10-13T07:35:45;31.30;99.50
31575;DHT22;18182;1.328;103.810;2022-10-13T07:38:11;31.30;99.10
31575;DHT22;18182;1.328;103.810;2022-10-13T07:40:37;31.30;99.40
31575;DHT22;18182;1.328;103.810;2022-10-13T07:43:04;31.20;99.20
31575;DHT22;18182;1.328;103.810;2022-10-13T07:45:30;31.20;98.80
31575;DHT22;18182;1.328;103.810;2022-10-13T07:47:56;31.20;98.50
31575;DHT22;18182;1.328;103.810;2022-10-13T07:50:22;31.30;98.30
31575;DHT22;18182;1.328;103.810;2022-10-13T07:52:48;31.40;98.00
31575;DHT22;18182;1.328;103.810;2022-10-13T07:55:15;31.40;97.70
31575;DHT22;18182;1.328;103.810;2022-10-13T07:57:41;31.50;97.40
31575;DHT22;18182;1.328;103.810;2022-10-13T08:00:07;31.50;97.20
31575;DHT22;18182;1.328;103.810;2022-10-13T08:02:34;31.60;97.20
31575;DHT22;18182;1.328;103.810;2022-10-13T08:05:01;31.70;97.20
31575;DHT22;18182;1.328;103.810;2022-10-13T08:07:28;31.70;97.10
31575;DHT22;18182;1.328;103.810;2022-10-13T08:09:54;31.70;96.90
31575;DHT22;18182;1.328;103.810;2022-10-13T08:12:20;31.70;96.70
31575;DHT22;18182;1.328;103.810;2022-10-13T08:14:49;31.80;96.50
31575;DHT22;18182;1.328;103.810;2022-10-13T08:17:15;31.90;96.30
31575;DHT22;18182;1.328;103.810;2022-10-13T08:19:41;31.80;95.80
31575;DHT22;18182;1.328;103.810;2022-10-13T08:22:08;31.80;95.60
31575;DHT22;18182;1.328;103.810;2022-10-13T08:24:35;31.90;95.50
31575;DHT22;18182;1.328;103.810;2022-10-13T08:27:01;31.80;95.50
31575;DHT22;18182;1.328;103.810;2022-10-13T08:29:27;31.80;95.50
31575;DHT22;18182;1.328;103.810;2022-10-13T08:31:54;31.80;95.60
31575;DHT22;18182;1.328;103.810;2022-10-13T08:34:21;31.80;95.70
31575;DHT22;18182;1.328;103.810;2022-10-13T08:36:47;31.80;95.60
31575;DHT22;18182;1.328;103.810;2022-10-13T08:39:17;31.80;95.60
31575;DHT22;18182;1.328;103.810;2022-10-13T08:41:43;31.80;95.90
31575;DHT22;18182;1.328;103.810;2022-10-13T08:44:21;31.90;96.10
31575;DHT22;18182;1.328;103.810;2022-10-13T08:47:05;31.80;96.20
31575;DHT22;18182;1.328;103.810;2022-10-13T08:49:33;31.90;96.50
31575;DHT22;18182;1.328;103.810;2022-10-13T08:52:03;31.90;96.60
31575;DHT22;18182;1.328;103.810;2022-10-13T08:54:30;31.90;96.80
31575;DHT22;18182;1.328;103.810;2022-10-13T08:56:57;31.90;97.10
31575;DHT22;18182;1.328;103.810;2022-10-13T08:59:23;31.90;97.40
31575;DHT22;18182;1.328;103.810;2022-10-13T09:01:53;31.90;97.70
31575;DHT22;18182;1.328;103.810;2022-10-13T09:06:53;31.80;98.10
31575;DHT22;18182;1.328;103.810;2022-10-13T09:09:20;31.90;98.50
31575;DHT22;18182;1.328;103.810;2022-10-13T09:11:47;31.90;98.50
31575;DHT22;18182;1.328;103.810;2022-10-13T09:14:27;31.90;98.70
31575;DHT22;18182;1.328;103.810;2022-10-13T09:16:55;31.90;98.40
31575;DHT22;18182;1.328;103.810;2022-10-13T09:19:28;31.80;98.30
31575;DHT22;18182;1.328;103.810;2022-10-13T09:21:56;31.90;98.70
31575;DHT22;18182;1.328;103.810;2022-10-13T09:24:23;31.90;99.00
31575;DHT22;18182;1.328;103.810;2022-10-13T09:27:00;31.90;99.10
31575;DHT22;18182;1.328;103.810;2022-10-13T09:29:27;31.90;99.00
31575;DHT22;18182;1.328;103.810;2022-10-13T09:32:06;31.90;98.90
31575;DHT22;18182;1.328;103.810;2022-10-13T09:34:32;31.90;98.90
31575;DHT22;18182;1.328;103.810;2022-10-13T09:37:03;31.80;98.80
31575;DHT22;18182;1.328;103.810;2022-10-13T09:39:30;31.80;98.90
31575;DHT22;18182;1.328;103.810;2022-10-13T09:44:41;31.80;99.00
31575;DHT22;18182;1.328;103.810;2022-10-13T09:47:13;31.80;98.80
31575;DHT22;18182;1.328;103.810;2022-10-13T09:49:42;31.80;98.00
31575;DHT22;18182;1.328;103.810;2022-10-13T09:54:51;31.70;97.70
31575;DHT22;18182;1.328;103.810;2022-10-13T09:59:57;31.70;97.90
31575;DHT22;18182;1.328;103.810;2022-10-13T10:04:59;31.70;97.90
31575;DHT22;18182;1.328;103.810;2022-10-13T10:07:28;31.60;97.90
31575;DHT22;18182;1.328;103.810;2022-10-13T10:10:03;31.60;97.90
31575;DHT22;18182;1.328;103.810;2022-10-13T10:12:30;31.60;98.10
31575;DHT22;18182;1.328;103.810;2022-10-13T10:14:57;31.50;98.00
31575;DHT22;18182;1.328;103.810;2022-10-13T10:23:05;31.40;97.90
31575;DHT22;18182;1.328;103.810;2022-10-13T10:28:04;31.20;98.00
31575;DHT22;18182;1.328;103.810;2022-10-13T10:30:37;31.10;98.10
31575;DHT22;18182;1.328;103.810;2022-10-13T10:33:09;31.00;97.90
31575;DHT22;18182;1.328;103.810;2022-10-13T10:40:44;30.70;97.90
31575;DHT22;18182;1.328;103.810;2022-10-13T10:43:25;30.70;98.30
31575;DHT22;18182;1.328;103.810;2022-10-13T10:45:57;30.60;98.40
31575;DHT22;18182;1.328;103.810;2022-10-13T10:48:45;30.50;98.50
31575;DHT22;18182;1.328;103.810;2022-10-13T10:51:10;30.40;98.80
31575;DHT22;18182;1.328;103.810;2022-10-13T10:56:30;30.30;99.30
31575;DHT22;18182;1.328;103.810;2022-10-13T10:59:04;30.30;99.60
31575;DHT22;18182;1.328;103.810;2022-10-13T11:06:34;30.30;99.90
31575;DHT22;18182;1.328;103.810;2022-10-13T11:09:01;30.30;99.90
31575;DHT22;18182;1.328;103.810;2022-10-13T11:11:28;30.20;99.90
31575;DHT22;18182;1.328;103.810;2022-10-13T11:16:27;30.20;99.90
31575;DHT22;18182;1.328;103.810;2022-10-13T11:18:54;30.20;99.90
31575;DHT22;18182;1.328;103.810;2022-10-13T11:21:21;30.10;99.90
31575;DHT22;18182;1.328;103.810;2022-10-13T11:23:48;30.10;99.90
31575;DHT22;18182;1.328;103.810;2022-10-13T11:26:56;30.10;99.90
31575;DHT22;18182;1.328;103.810;2022-10-13T11:29:13;30.00;99.90
31575;DHT22;18182;1.328;103.810;2022-10-13T11:31:47;30.00;99.90
31575;DHT22;18182;1.328;103.810;2022-10-13T11:37:14;30.00;99.90
31575;DHT22;18182;1.328;103.810;2022-10-13T11:39:48;30.00;99.90
31575;DHT22;18182;1.328;103.810;2022-10-13T11:42:35;30.00;99.90
31575;DHT22;18182;1.328;103.810;2022-10-13T11:55:14;29.90;99.90
31575;DHT22;18182;1.328;103.810;2022-10-13T11:57:42;29.90;99.90
31575;DHT22;18182;1.328;103.810;2022-10-13T12:00:12;29.90;99.90
31575;DHT22;18182;1.328;103.810;2022-10-13T12:02:46;29.90;99.90
31575;DHT22;18182;1.328;103.810;2022-10-13T12:05:22;29.90;99.90
31575;DHT22;18182;1.328;103.810;2022-10-13T12:07:49;29.90;99.90
31575;DHT22;18182;1.328;103.810;2022-10-13T12:10:17;29.90;99.90
31575;DHT22;18182;1.328;103.810;2022-10-13T12:12:48;29.90;99.90
31575;DHT22;18182;1.328;103.810;2022-10-13T12:18:00;29.80;99.90
31575;DHT22;18182;1.328;103.810;2022-10-13T12:20:27;29.80;99.90
31575;DHT22;18182;1.328;103.810;2022-10-13T12:22:54;29.80;99.90
31575;DHT22;18182;1.328;103.810;2022-10-13T12:25:22;29.80;99.90
31575;DHT22;18182;1.328;103.810;2022-10-13T12:27:57;29.80;99.90
31575;DHT22;18182;1.328;103.810;2022-10-13T12:30:26;29.80;99.90
31575;DHT22;18182;1.328;103.810;2022-10-13T12:32:54;29.80;99.90
31575;DHT22;18182;1.328;103.810;2022-10-13T12:37:46;29.80;99.90
31575;DHT22;18182;1.328;103.810;2022-10-13T12:40:14;29.70;99.90
31575;DHT22;18182;1.328;103.810;2022-10-13T12:42:41;29.70;99.90
31575;DHT22;18182;1.328;103.810;2022-10-13T12:45:20;29.80;99.90
31575;DHT22;18182;1.328;103.810;2022-10-13T12:47:50;29.70;99.90
31575;DHT22;18182;1.328;103.810;2022-10-13T12:53:00;29.70;99.90
31575;DHT22;18182;1.328;103.810;2022-10-13T12:55:28;29.70;99.90
31575;DHT22;18182;1.328;103.810;2022-10-13T12:57:54;29.70;99.90
31575;DHT22;18182;1.328;103.810;2022-10-13T13:03:05;29.70;99.90
31575;DHT22;18182;1.328;103.810;2022-10-13T13:05:39;29.60;99.90
31575;DHT22;18182;1.328;103.810;2022-10-13T13:08:27;29.60;99.90
31575;DHT22;18182;1.328;103.810;2022-10-13T13:10:55;29.60;99.90
31575;DHT22;18182;1.328;103.810;2022-10-13T13:13:23;29.60;99.90
31575;DHT22;18182;1.328;103.810;2022-10-13T13:15:49;29.60;99.90
31575;DHT22;18182;1.328;103.810;2022-10-13T13:18:31;29.60;99.90
31575;DHT22;18182;1.328;103.810;2022-10-13T13:21:03;29.70;99.90
31575;DHT22;18182;1.328;103.810;2022-10-13T13:23:29;29.70;99.90
31575;DHT22;18182;1.328;103.810;2022-10-13T13:26:20;29.70;99.90
31575;DHT22;18182;1.328;103.810;2022-10-13T13:28:46;29.60;99.90
31575;DHT22;18182;1.328;103.810;2022-10-13T13:31:13;29.60;99.90
31575;DHT22;18182;1.328;103.810;2022-10-13T13:33:39;29.60;99.90
31575;DHT22;18182;1.328;103.810;2022-10-13T13:38:41;29.60;99.90
31575;DHT22;18182;1.328;103.810;2022-10-13T13:41:08;29.60;99.90
31575;DHT22;18182;1.328;103.810;2022-10-13T13:43:35;29.60;99.90
31575;DHT22;18182;1.328;103.810;2022-10-13T13:46:02;29.50;99.90
31575;DHT22;18182;1.328;103.810;2022-10-13T13:48:28;29.50;99.90
31575;DHT22;18182;1.328;103.810;2022-10-13T13:50:54;29.50;99.90
31575;DHT22;18182;1.328;103.810;2022-10-13T13:53:20;29.60;99.90
31575;DHT22;18182;1.328;103.810;2022-10-13T13:55:47;29.50;99.90
31575;DHT22;18182;1.328;103.810;2022-10-13T13:58:13;29.50;99.90
31575;DHT22;18182;1.328;103.810;2022-10-13T14:00:39;29.50;99.90
31575;DHT22;18182;1.328;103.810;2022-10-13T14:03:05;29.50;99.90
31575;DHT22;18182;1.328;103.810;2022-10-13T14:05:32;29.50;99.90
31575;DHT22;18182;1.328;103.810;2022-10-13T14:07:58;29.50;99.90
31575;DHT22;18182;1.328;103.810;2022-10-13T14:10:24;29.50;99.90
31575;DHT22;18182;1.328;103.810;2022-10-13T14:12:51;29.60;99.90
31575;DHT22;18182;1.328;103.810;2022-10-13T14:15:17;29.60;99.90
31575;DHT22;18182;1.328;103.810;2022-10-13T14:17:43;29.50;99.90
31575;DHT22;18182;1.328;103.810;2022-10-13T14:20:09;29.50;99.90
31575;DHT22;18182;1.328;103.810;2022-10-13T14:22:36;29.50;99.90
31575;DHT22;18182;1.328;103.810;2022-10-13T14:25:02;29.50;99.90
31575;DHT22;18182;1.328;103.810;2022-10-13T14:27:29;29.40;99.90
31575;DHT22;18182;1.328;103.810;2022-10-13T14:29:55;29.40;99.90
31575;DHT22;18182;1.328;103.810;2022-10-13T14:32:21;29.40;99.90
31575;DHT22;18182;1.328;103.810;2022-10-13T14:34:47;29.40;99.90
31575;DHT22;18182;1.328;103.810;2022-10-13T14:37:14;29.50;99.90
31575;DHT22;18182;1.328;103.810;2022-10-13T14:39:40;29.40;99.90
31575;DHT22;18182;1.328;103.810;2022-10-13T14:42:06;29.40;99.90
31575;DHT22;18182;1.328;103.810;2022-10-13T14:44:32;29.40;99.90
31575;DHT22;18182;1.328;103.810;2022-10-13T14:46:58;29.30;99.90
31575;DHT22;18182;1.328;103.810;2022-10-13T14:49:24;29.30;99.90
31575;DHT22;18182;1.328;103.810;2022-10-13T14:51:50;29.30;99.90
31575;DHT22;18182;1.328;103.810;2022-10-13T14:54:16;29.30;99.90
31575;DHT22;18182;1.328;103.810;2022-10-13T14:56:43;29.30;99.90
31575;DHT22;18182;1.328;103.810;2022-10-13T14:59:09;29.20;99.90
31575;DHT22;18182;1.328;103.810;2022-10-13T15:01:36;29.30;99.90
31575;DHT22;18182;1.328;103.810;2022-10-13T15:04:03;29.20;99.90
31575;DHT22;18182;1.328;103.810;2022-10-13T15:06:29;29.20;99.90
31575;DHT22;18182;1.328;103.810;2022-10-13T15:08:56;29.20;99.90
31575;DHT22;18182;1.328;103.810;2022-10-13T15:11:22;29.20;99.90
31575;DHT22;18182;1.328;103.810;2022-10-13T15:13:48;29.20;99.90
31575;DHT22;18182;1.328;103.810;2022-10-13T15:16:16;29.10;99.90
31575;DHT22;18182;1.328;103.810;2022-10-13T15:18:43;29.10;99.90
31575;DHT22;18182;1.328;103.810;2022-10-13T15:21:09;29.10;99.90
31575;DHT22;18182;1.328;103.810;2022-10-13T15:23:35;29.10;99.90
31575;DHT22;18182;1.328;103.810;2022-10-13T15:26:02;29.20;99.90
31575;DHT22;18182;1.328;103.810;2022-10-13T15:28:33;29.20;99.90
31575;DHT22;18182;1.328;103.810;2022-10-13T15:30:59;29.20;99.90
31575;DHT22;18182;1.328;103.810;2022-10-13T15:33:26;29.10;99.90
31575;DHT22;18182;1.328;103.810;2022-10-13T15:35:52;29.00;99.90
31575;DHT22;18182;1.328;103.810;2022-10-13T15:38:19;29.00;99.90
31575;DHT22;18182;1.328;103.810;2022-10-13T15:40:46;29.00;99.90
31575;DHT22;18182;1.328;103.810;2022-10-13T15:43:12;29.00;99.90
31575;DHT22;18182;1.328;103.810;2022-10-13T15:45:38;29.00;99.90
31575;DHT22;18182;1.328;103.810;2022-10-13T15:48:05;29.00;99.90
31575;DHT22;18182;1.328;103.810;2022-10-13T15:50:31;29.00;99.90
31575;DHT22;18182;1.328;103.810;2022-10-13T15:52:58;29.00;99.90
31575;DHT22;18182;1.328;103.810;2022-10-13T15:55:24;29.00;99.90
31575;DHT22;18182;1.328;103.810;2022-10-13T15:57:50;29.00;99.90
31575;DHT22;18182;1.328;103.810;2022-10-13T16:00:16;28.90;99.90
31575;DHT22;18182;1.328;103.810;2022-10-13T16:02:42;28.90;99.90
31575;DHT22;18182;1.328;103.810;2022-10-13T16:05:09;28.90;99.90
31575;DHT22;18182;1.328;103.810;2022-10-13T16:07:37;28.90;99.90
31575;DHT22;18182;1.328;103.810;2022-10-13T16:10:03;28.90;99.90
31575;DHT22;18182;1.328;103.810;2022-10-13T16:12:30;28.90;99.90
31575;DHT22;18182;1.328;103.810;2022-10-13T16:14:56;28.90;99.90
31575;DHT22;18182;1.328;103.810;2022-10-13T16:17:22;28.80;99.90
31575;DHT22;18182;1.328;103.810;2022-10-13T16:19:48;28.70;99.90
31575;DHT22;18182;1.328;103.810;2022-10-13T16:22:14;28.70;99.90
31575;DHT22;18182;1.328;103.810;2022-10-13T16:24:40;28.60;99.90
31575;DHT22;18182;1.328;103.810;2022-10-13T16:27:07;28.60;99.90
31575;DHT22;18182;1.328;103.810;2022-10-13T16:29:33;28.60;99.90
31575;DHT22;18182;1.328;103.810;2022-10-13T16:31:59;28.60;99.90
31575;DHT22;18182;1.328;103.810;2022-10-13T16:34:25;28.60;99.90
31575;DHT22;18182;1.328;103.810;2022-10-13T16:36:52;28.70;99.90
31575;DHT22;18182;1.328;103.810;2022-10-13T16:39:18;28.70;99.90
31575;DHT22;18182;1.328;103.810;2022-10-13T16:41:44;28.60;99.90
31575;DHT22;18182;1.328;103.810;2022-10-13T16:44:11;28.70;99.90
31575;DHT22;18182;1.328;103.810;2022-10-13T16:46:37;28.70;99.90